sensor_id;sensor_type;location;lat;lon;timestamp;temperature;humidity
32215;DHT22;18708;53.124;23.190;2022-09-20T00:01:55;10.80;99.90
32215;DHT22;18708;53.124;23.190;2022-09-20T00:04:20;10.90;99.90
32215;DHT22;18708;53.124;23.190;2022-09-20T00:06:46;10.80;99.90
32215;DHT22;18708;53.124;23.190;2022-09-20T00:09:12;10.80;99.90
32215;DHT22;18708;53.124;23.190;2022-09-20T00:11:37;10.80;99.90
32215;DHT22;18708;53.124;23.190;2022-09-20T00:14:05;10.80;99.90
32215;DHT22;18708;53.124;23.190;2022-09-20T00:16:35;10.80;99.90
32215;DHT22;18708;53.124;23.190;2022-09-20T00:19:03;10.70;99.90
32215;DHT22;18708;53.124;23.190;2022-09-20T00:21:31;10.80;99.90
32215;DHT22;18708;53.124;23.190;2022-09-20T00:23:57;10.80;99.90
32215;DHT22;18708;53.124;23.190;2022-09-20T00:26:24;10.80;99.90
32215;DHT22;18708;53.124;23.190;2022-09-20T00:28:49;10.80;99.90
32215;DHT22;18708;53.124;23.190;2022-09-20T00:31:16;10.80;99.90
32215;DHT22;18708;53.124;23.190;2022-09-20T00:33:42;10.70;99.90
32215;DHT22;18708;53.124;23.190;2022-09-20T00:36:27;10.70;99.90
32215;DHT22;18708;53.124;23.190;2022-09-20T00:39:00;10.70;99.90
32215;DHT22;18708;53.124;23.190;2022-09-20T00:41:27;10.70;99.90
32215;DHT22;18708;53.124;23.190;2022-09-20T00:43:53;10.70;99.90
32215;DHT22;18708;53.124;23.190;2022-09-20T00:48:50;10.80;99.90
32215;DHT22;18708;53.124;23.190;2022-09-20T00:51:22;10.80;99.90
32215;DHT22;18708;53.124;23.190;2022-09-20T00:53:50;10.90;99.90
32215;DHT22;18708;53.124;23.190;2022-09-20T00:56:22;10.90;99.90
32215;DHT22;18708;53.124;23.190;2022-09-20T00:58:56;10.90;99.90
32215;DHT22;18708;53.124;23.190;2022-09-20T01:01:25;10.90;99.90
32215;DHT22;18708;53.124;23.190;2022-09-20T01:03:51;11.00;99.90
32215;DHT22;18708;53.124;23.190;2022-09-20T01:06:17;10.90;99.90
32215;DHT22;18708;53.124;23.190;2022-09-20T01:08:46;10.90;99.90
32215;DHT22;18708;53.124;23.190;2022-09-20T01:11:13;10.90;99.90
32215;DHT22;18708;53.124;23.190;2022-09-20T01:13:39;10.80;99.90
32215;DHT22;18708;53.124;23.190;2022-09-20T01:16:05;10.80;99.90
32215;DHT22;18708;53.124;23.190;2022-09-20T01:18:33;10.80;99.90
32215;DHT22;18708;53.124;23.190;2022-09-20T01:21:01;10.80;99.90
32215;DHT22;18708;53.124;23.190;2022-09-20T01:23:37;10.80;99.90
32215;DHT22;18708;53.124;23.190;2022-09-20T01:26:27;10.80;99.90
32215;DHT22;18708;53.124;23.190;2022-09-20T01:31:52;10.70;99.90
32215;DHT22;18708;53.124;23.190;2022-09-20T01:34:33;10.80;99.90
32215;DHT22;18708;53.124;23.190;2022-09-20T01:42:36;10.80;99.90
32215;DHT22;18708;53.124;23.190;2022-09-20T01:48:03;10.80;99.90
32215;DHT22;18708;53.124;23.190;2022-09-20T02:05:21;10.90;99.90
32215;DHT22;18708;53.124;23.190;2022-09-20T02:07:48;10.80;99.90
32215;DHT22;18708;53.124;23.190;2022-09-20T02:13:03;10.70;99.90
32215;DHT22;18708;53.124;23.190;2022-09-20T02:27:00;10.70;99.90
32215;DHT22;18708;53.124;23.190;2022-09-20T02:37:59;10.80;99.90
32215;DHT22;18708;53.124;23.190;2022-09-20T02:46:07;10.80;99.90
32215;DHT22;18708;53.124;23.190;2022-09-20T02:48:53;10.70;99.90
32215;DHT22;18708;53.124;23.190;2022-09-20T02:57:10;10.70;99.90
32215;DHT22;18708;53.124;23.190;2022-09-20T03:00:04;10.70;99.90
32215;DHT22;18708;53.124;23.190;2022-09-20T03:10:39;10.80;99.90
32215;DHT22;18708;53.124;23.190;2022-09-20T03:13:32;10.80;99.90
32215;DHT22;18708;53.124;23.190;2022-09-20T03:16:24;10.80;99.90
32215;DHT22;18708;53.124;23.190;2022-09-20T03:21:45;10.70;99.90
32215;DHT22;18708;53.124;23.190;2022-09-20T03:27:22;10.70;99.90
32215;DHT22;18708;53.124;23.190;2022-09-20T03:32:51;10.60;99.90
32215;DHT22;18708;53.124;23.190;2022-09-20T03:35:34;10.70;99.90
32215;DHT22;18708;53.124;23.190;2022-09-20T04:17:05;10.80;99.90
32215;DHT22;18708;53.124;23.190;2022-09-20T04:20:00;10.80;99.90
32215;DHT22;18708;53.124;23.190;2022-09-20T04:22:28;10.70;99.90
32215;DHT22;18708;53.124;23.190;2022-09-20T04:25:22;10.60;99.90
32215;DHT22;18708;53.124;23.190;2022-09-20T04:27:57;10.60;99.90
32215;DHT22;18708;53.124;23.190;2022-09-20T04:30:26;10.70;99.90
32215;DHT22;18708;53.124;23.190;2022-09-20T04:32:59;10.60;99.90
32215;DHT22;18708;53.124;23.190;2022-09-20T04:35:50;10.70;99.90
32215;DHT22;18708;53.124;23.190;2022-09-20T04:38:37;10.70;99.90
32215;DHT22;18708;53.124;23.190;2022-09-20T04:41:31;10.70;99.90
32215;DHT22;18708;53.124;23.190;2022-09-20T04:44:11;10.70;99.90
32215;DHT22;18708;53.124;23.190;2022-09-20T04:46:59;10.70;99.90
32215;DHT22;18708;53.124;23.190;2022-09-20T05:00:09;11.00;99.90
32215;DHT22;18708;53.124;23.190;2022-09-20T05:03:04;11.00;99.90
32215;DHT22;18708;53.124;23.190;2022-09-20T05:16:41;11.00;99.90
32215;DHT22;18708;53.124;23.190;2022-09-20T05:19:30;11.00;99.90
32215;DHT22;18708;53.124;23.190;2022-09-20T05:25:23;11.10;99.90
32215;DHT22;18708;53.124;23.190;2022-09-20T05:36:09;11.20;99.90
32215;DHT22;18708;53.124;23.190;2022-09-20T05:52:57;11.30;99.90
32215;DHT22;18708;53.124;23.190;2022-09-20T06:01:10;11.30;99.90
32215;DHT22;18708;53.124;23.190;2022-09-20T06:06:51;11.40;99.90
32215;DHT22;18708;53.124;23.190;2022-09-20T06:12:42;11.30;99.90
32215;DHT22;18708;53.124;23.190;2022-09-20T06:15:34;11.30;99.90
32215;DHT22;18708;53.124;23.190;2022-09-20T06:23:10;11.30;99.90
32215;DHT22;18708;53.124;23.190;2022-09-20T06:25:43;11.30;99.90
32215;DHT22;18708;53.124;23.190;2022-09-20T06:28:33;11.40;99.90
32215;DHT22;18708;53.124;23.190;2022-09-20T06:30:59;11.30;99.90
32215;DHT22;18708;53.124;23.190;2022-09-20T06:33:28;11.30;99.90
32215;DHT22;18708;53.124;23.190;2022-09-20T06:36:15;11.40;99.90
32215;DHT22;18708;53.124;23.190;2022-09-20T06:42:05;11.40;99.90
32215;DHT22;18708;53.124;23.190;2022-09-20T06:44:35;11.40;99.90
32215;DHT22;18708;53.124;23.190;2022-09-20T06:47:06;11.40;99.90
32215;DHT22;18708;53.124;23.190;2022-09-20T06:49:34;11.40;99.90
32215;DHT22;18708;53.124;23.190;2022-09-20T06:52:03;11.50;99.90
32215;DHT22;18708;53.124;23.190;2022-09-20T06:54:29;11.50;99.90
32215;DHT22;18708;53.124;23.190;2022-09-20T06:56:55;11.60;99.90
32215;DHT22;18708;53.124;23.190;2022-09-20T06:59:20;11.70;99.90
32215;DHT22;18708;53.124;23.190;2022-09-20T07:01:46;11.70;99.90
32215;DHT22;18708;53.124;23.190;2022-09-20T07:04:12;11.90;99.90
32215;DHT22;18708;53.124;23.190;2022-09-20T07:06:38;11.90;99.90
32215;DHT22;18708;53.124;23.190;2022-09-20T07:09:05;12.00;99.90
32215;DHT22;18708;53.124;23.190;2022-09-20T07:11:31;12.10;99.90
32215;DHT22;18708;53.124;23.190;2022-09-20T07:13:58;12.10;99.90
32215;DHT22;18708;53.124;23.190;2022-09-20T07:16:24;12.20;99.90
32215;DHT22;18708;53.124;23.190;2022-09-20T07:18:51;12.20;99.90
32215;DHT22;18708;53.124;23.190;2022-09-20T07:21:18;12.40;99.90
32215;DHT22;18708;53.124;23.190;2022-09-20T07:23:45;12.40;99.90
32215;DHT22;18708;53.124;23.190;2022-09-20T07:28:48;12.40;99.90
32215;DHT22;18708;53.124;23.190;2022-09-20T07:31:16;12.40;99.90
32215;DHT22;18708;53.124;23.190;2022-09-20T07:33:42;12.40;99.90
32215;DHT22;18708;53.124;23.190;2022-09-20T07:36:08;12.40;99.90
32215;DHT22;18708;53.124;23.190;2022-09-20T07:38:34;12.30;99.90
32215;DHT22;18708;53.124;23.190;2022-09-20T07:41:01;12.40;99.90
32215;DHT22;18708;53.124;23.190;2022-09-20T07:43:28;12.40;99.90
32215;DHT22;18708;53.124;23.190;2022-09-20T07:45:55;12.50;99.90
32215;DHT22;18708;53.124;23.190;2022-09-20T07:48:26;12.50;99.90
32215;DHT22;18708;53.124;23.190;2022-09-20T07:50:57;12.50;99.90
32215;DHT22;18708;53.124;23.190;2022-09-20T07:53:23;12.50;99.90
32215;DHT22;18708;53.124;23.190;2022-09-20T07:56:04;12.60;99.90
32215;DHT22;18708;53.124;23.190;2022-09-20T07:58:32;12.60;99.90
32215;DHT22;18708;53.124;23.190;2022-09-20T08:01:00;12.60;99.90
32215;DHT22;18708;53.124;23.190;2022-09-20T08:03:28;12.70;99.90
32215;DHT22;18708;53.124;23.190;2022-09-20T08:05:59;12.80;99.90
32215;DHT22;18708;53.124;23.190;2022-09-20T08:08:25;12.90;99.90
32215;DHT22;18708;53.124;23.190;2022-09-20T08:10:51;12.90;99.90
32215;DHT22;18708;53.124;23.190;2022-09-20T08:13:16;13.00;99.90
32215;DHT22;18708;53.124;23.190;2022-09-20T08:15:42;13.00;99.90
32215;DHT22;18708;53.124;23.190;2022-09-20T08:18:09;13.00;99.90
32215;DHT22;18708;53.124;23.190;2022-09-20T08:20:36;13.10;99.90
32215;DHT22;18708;53.124;23.190;2022-09-20T08:23:03;13.00;99.90
32215;DHT22;18708;53.124;23.190;2022-09-20T08:25:29;13.00;99.90
32215;DHT22;18708;53.124;23.190;2022-09-20T08:27:55;13.10;99.90
32215;DHT22;18708;53.124;23.190;2022-09-20T08:30:21;13.20;99.90
32215;DHT22;18708;53.124;23.190;2022-09-20T08:32:48;13.30;99.90
32215;DHT22;18708;53.124;23.190;2022-09-20T08:35:14;13.70;99.90
32215;DHT22;18708;53.124;23.190;2022-09-20T08:37:40;14.40;99.90
32215;DHT22;18708;53.124;23.190;2022-09-20T08:40:13;14.20;99.90
32215;DHT22;18708;53.124;23.190;2022-09-20T08:42:40;14.10;99.90
32215;DHT22;18708;53.124;23.190;2022-09-20T08:45:20;14.00;99.90
32215;DHT22;18708;53.124;23.190;2022-09-20T08:47:55;13.70;99.90
32215;DHT22;18708;53.124;23.190;2022-09-20T08:50:22;13.40;99.90
32215;DHT22;18708;53.124;23.190;2022-09-20T08:52:51;13.40;99.90
32215;DHT22;18708;53.124;23.190;2022-09-20T08:55:25;13.30;99.90
32215;DHT22;18708;53.124;23.190;2022-09-20T08:57:59;13.30;99.90
32215;DHT22;18708;53.124;23.190;2022-09-20T09:00:32;13.30;99.90
32215;DHT22;18708;53.124;23.190;2022-09-20T09:03:09;13.30;99.90
32215;DHT22;18708;53.124;23.190;2022-09-20T09:05:36;13.40;99.90
32215;DHT22;18708;53.124;23.190;2022-09-20T09:08:18;14.10;99.90
32215;DHT22;18708;53.124;23.190;2022-09-20T09:10:51;14.70;99.90
32215;DHT22;18708;53.124;23.190;2022-09-20T09:13:38;15.60;99.90
32215;DHT22;18708;53.124;23.190;2022-09-20T09:16:13;17.60;99.90
32215;DHT22;18708;53.124;23.190;2022-09-20T09:18:41;17.40;99.90
32215;DHT22;18708;53.124;23.190;2022-09-20T09:21:08;16.90;99.90
32215;DHT22;18708;53.124;23.190;2022-09-20T09:23:44;16.40;99.90
32215;DHT22;18708;53.124;23.190;2022-09-20T09:26:22;16.00;99.90
32215;DHT22;18708;53.124;23.190;2022-09-20T09:31:36;15.20;99.90
32215;DHT22;18708;53.124;23.190;2022-09-20T09:34:04;15.00;99.90
32215;DHT22;18708;53.124;23.190;2022-09-20T09:36:30;14.90;99.90
32215;DHT22;18708;53.124;23.190;2022-09-20T09:41:52;14.70;99.90
32215;DHT22;18708;53.124;23.190;2022-09-20T09:44:26;14.90;99.90
32215;DHT22;18708;53.124;23.190;2022-09-20T09:46:54;15.90;99.90
32215;DHT22;18708;53.124;23.190;2022-09-20T09:49:22;16.80;99.90
32215;DHT22;18708;53.124;23.190;2022-09-20T09:54:28;19.10;99.90
32215;DHT22;18708;53.124;23.190;2022-09-20T10:10:15;16.60;99.90
32215;DHT22;18708;53.124;23.190;2022-09-20T10:13:28;16.30;99.90
32215;DHT22;18708;53.124;23.190;2022-09-20T10:29:06;16.20;99.90
32215;DHT22;18708;53.124;23.190;2022-09-20T10:34:16;15.90;99.90
32215;DHT22;18708;53.124;23.190;2022-09-20T10:47:19;15.60;99.90
32215;DHT22;18708;53.124;23.190;2022-09-20T11:09:03;20.40;99.90
32215;DHT22;18708;53.124;23.190;2022-09-20T11:11:58;20.10;99.90
32215;DHT22;18708;53.124;23.190;2022-09-20T11:14:40;19.70;99.90
32215;DHT22;18708;53.124;23.190;2022-09-20T11:20:01;18.60;99.90
32215;DHT22;18708;53.124;23.190;2022-09-20T11:22:39;18.30;99.90
32215;DHT22;18708;53.124;23.190;2022-09-20T11:28:22;17.20;99.90
32215;DHT22;18708;53.124;23.190;2022-09-20T11:35:58;16.90;99.90
32215;DHT22;18708;53.124;23.190;2022-09-20T11:38:48;16.60;99.90
32215;DHT22;18708;53.124;23.190;2022-09-20T11:41:25;16.20;99.90
32215;DHT22;18708;53.124;23.190;2022-09-20T11:43:54;15.90;99.90
32215;DHT22;18708;53.124;23.190;2022-09-20T11:46:24;15.80;99.90
32215;DHT22;18708;53.124;23.190;2022-09-20T11:49:05;15.90;99.90
32215;DHT22;18708;53.124;23.190;2022-09-20T11:56:57;19.40;99.90
32215;DHT22;18708;53.124;23.190;2022-09-20T12:01:59;20.00;99.90
32215;DHT22;18708;53.124;23.190;2022-09-20T12:04:28;20.00;99.90
32215;DHT22;18708;53.124;23.190;2022-09-20T12:07:04;19.50;99.90
32215;DHT22;18708;53.124;23.190;2022-09-20T12:09:42;19.40;99.90
32215;DHT22;18708;53.124;23.190;2022-09-20T12:14:56;18.70;99.90
32215;DHT22;18708;53.124;23.190;2022-09-20T12:26:05;19.80;99.90
32215;DHT22;18708;53.124;23.190;2022-09-20T12:28:39;19.10;99.90
32215;DHT22;18708;53.124;23.190;2022-09-20T12:34:26;18.50;99.90
32215;DHT22;18708;53.124;23.190;2022-09-20T12:39:25;18.20;99.90
32215;DHT22;18708;53.124;23.190;2022-09-20T12:41:53;17.90;99.90
32215;DHT22;18708;53.124;23.190;2022-09-20T12:49:38;17.00;99.90
32215;DHT22;18708;53.124;23.190;2022-09-20T12:52:23;16.90;99.90
32215;DHT22;18708;53.124;23.190;2022-09-20T12:55:11;17.10;99.90
32215;DHT22;18708;53.124;23.190;2022-09-20T12:57:38;17.40;99.90
32215;DHT22;18708;53.124;23.190;2022-09-20T13:00:06;17.70;99.90
32215;DHT22;18708;53.124;23.190;2022-09-20T13:05:37;17.80;99.90
32215;DHT22;18708;53.124;23.190;2022-09-20T13:08:25;17.80;99.90
32215;DHT22;18708;53.124;23.190;2022-09-20T13:11:11;17.70;99.90
32215;DHT22;18708;53.124;23.190;2022-09-20T13:13:57;18.50;99.90
32215;DHT22;18708;53.124;23.190;2022-09-20T13:19:40;17.80;99.90
32215;DHT22;18708;53.124;23.190;2022-09-20T13:22:24;17.60;99.90
32215;DHT22;18708;53.124;23.190;2022-09-20T13:24:55;17.30;99.90
32215;DHT22;18708;53.124;23.190;2022-09-20T13:27:45;17.00;99.90
32215;DHT22;18708;53.124;23.190;2022-09-20T13:30:24;16.90;99.90
32215;DHT22;18708;53.124;23.190;2022-09-20T13:32:51;16.90;99.90
32215;DHT22;18708;53.124;23.190;2022-09-20T13:35:19;16.70;99.90
32215;DHT22;18708;53.124;23.190;2022-09-20T13:37:57;16.40;99.90
32215;DHT22;18708;53.124;23.190;2022-09-20T13:43:25;16.10;99.90
32215;DHT22;18708;53.124;23.190;2022-09-20T13:45:57;16.00;99.90
32215;DHT22;18708;53.124;23.190;2022-09-20T13:48:28;16.00;99.90
32215;DHT22;18708;53.124;23.190;2022-09-20T13:50:55;15.90;99.90
32215;DHT22;18708;53.124;23.190;2022-09-20T13:53:24;15.90;99.90
32215;DHT22;18708;53.124;23.190;2022-09-20T13:55:50;15.90;99.90
32215;DHT22;18708;53.124;23.190;2022-09-20T13:58:32;15.90;99.90
32215;DHT22;18708;53.124;23.190;2022-09-20T14:01:04;16.10;99.90
32215;DHT22;18708;53.124;23.190;2022-09-20T14:03:34;16.20;99.90
32215;DHT22;18708;53.124;23.190;2022-09-20T14:06:10;16.20;99.90
32215;DHT22;18708;53.124;23.190;2022-09-20T14:08:48;16.10;99.90
32215;DHT22;18708;53.124;23.190;2022-09-20T14:13:46;15.80;99.90
32215;DHT22;18708;53.124;23.190;2022-09-20T14:16:13;15.80;99.90
32215;DHT22;18708;53.124;23.190;2022-09-20T14:18:40;15.70;99.90
32215;DHT22;18708;53.124;23.190;2022-09-20T14:21:07;15.70;99.90
32215;DHT22;18708;53.124;23.190;2022-09-20T14:23:51;15.70;99.90
32215;DHT22;18708;53.124;23.190;2022-09-20T14:28:50;15.60;99.90
32215;DHT22;18708;53.124;23.190;2022-09-20T14:31:28;15.50;99.90
32215;DHT22;18708;53.124;23.190;2022-09-20T14:33:58;15.40;99.90
32215;DHT22;18708;53.124;23.190;2022-09-20T14:36:27;15.40;99.90
32215;DHT22;18708;53.124;23.190;2022-09-20T14:38:57;15.30;99.90
32215;DHT22;18708;53.124;23.190;2022-09-20T14:41:33;15.30;99.90
32215;DHT22;18708;53.124;23.190;2022-09-20T14:44:01;15.30;99.90
32215;DHT22;18708;53.124;23.190;2022-09-20T14:46:35;15.20;99.90
32215;DHT22;18708;53.124;23.190;2022-09-20T14:49:30;15.20;99.90
32215;DHT22;18708;53.124;23.190;2022-09-20T14:54:42;15.10;99.90
32215;DHT22;18708;53.124;23.190;2022-09-20T14:57:08;15.10;99.90
32215;DHT22;18708;53.124;23.190;2022-09-20T14:59:41;15.10;99.90
32215;DHT22;18708;53.124;23.190;2022-09-20T15:04:35;14.80;99.90
32215;DHT22;18708;53.124;23.190;2022-09-20T15:07:04;14.60;99.90
32215;DHT22;18708;53.124;23.190;2022-09-20T15:09:31;14.40;99.90
32215;DHT22;18708;53.124;23.190;2022-09-20T15:12:13;14.30;99.90
32215;DHT22;18708;53.124;23.190;2022-09-20T15:14:40;14.00;99.90
32215;DHT22;18708;53.124;23.190;2022-09-20T15:17:11;13.60;99.90
32215;DHT22;18708;53.124;23.190;2022-09-20T15:19:38;13.40;99.90
32215;DHT22;18708;53.124;23.190;2022-09-20T15:22:03;13.20;99.90
32215;DHT22;18708;53.124;23.190;2022-09-20T15:24:29;13.20;99.90
32215;DHT22;18708;53.124;23.190;2022-09-20T15:26:55;13.10;99.90
32215;DHT22;18708;53.124;23.190;2022-09-20T15:29:20;13.00;99.90
32215;DHT22;18708;53.124;23.190;2022-09-20T15:31:47;12.90;99.90
32215;DHT22;18708;53.124;23.190;2022-09-20T15:34:13;12.70;99.90
32215;DHT22;18708;53.124;23.190;2022-09-20T15:36:40;12.60;99.90
32215;DHT22;18708;53.124;23.190;2022-09-20T15:39:06;12.40;99.90
32215;DHT22;18708;53.124;23.190;2022-09-20T15:41:33;12.40;99.90
32215;DHT22;18708;53.124;23.190;2022-09-20T15:44:00;12.30;99.90
32215;DHT22;18708;53.124;23.190;2022-09-20T15:46:26;12.20;99.90
32215;DHT22;18708;53.124;23.190;2022-09-20T15:48:55;12.20;99.90
32215;DHT22;18708;53.124;23.190;2022-09-20T15:51:21;12.10;99.90
32215;DHT22;18708;53.124;23.190;2022-09-20T15:53:58;12.10;99.90
32215;DHT22;18708;53.124;23.190;2022-09-20T15:56:29;12.10;99.90
32215;DHT22;18708;53.124;23.190;2022-09-20T15:59:00;12.10;99.90
32215;DHT22;18708;53.124;23.190;2022-09-20T16:01:28;12.10;99.90
32215;DHT22;18708;53.124;23.190;2022-09-20T16:03:55;12.10;99.90
32215;DHT22;18708;53.124;23.190;2022-09-20T16:06:21;12.20;99.90
32215;DHT22;18708;53.124;23.190;2022-09-20T16:08:48;12.10;99.90
32215;DHT22;18708;53.124;23.190;2022-09-20T16:11:16;12.10;99.90
32215;DHT22;18708;53.124;23.190;2022-09-20T16:13:44;12.00;99.90
32215;DHT22;18708;53.124;23.190;2022-09-20T16:16:11;11.90;99.90
32215;DHT22;18708;53.124;23.190;2022-09-20T16:18:38;11.90;99.90
32215;DHT22;18708;53.124;23.190;2022-09-20T16:21:22;11.90;99.90
32215;DHT22;18708;53.124;23.190;2022-09-20T16:23:51;11.80;99.90
32215;DHT22;18708;53.124;23.190;2022-09-20T16:26:17;11.70;99.90
32215;DHT22;18708;53.124;23.190;2022-09-20T16:28:44;11.70;99.90
32215;DHT22;18708;53.124;23.190;2022-09-20T16:34:14;11.60;99.90
32215;DHT22;18708;53.124;23.190;2022-09-20T16:36:48;11.60;99.90
32215;DHT22;18708;53.124;23.190;2022-09-20T16:39:15;11.50;99.90
32215;DHT22;18708;53.124;23.190;2022-09-20T16:41:42;11.50;99.90
32215;DHT22;18708;53.124;23.190;2022-09-20T16:44:09;11.50;99.90
32215;DHT22;18708;53.124;23.190;2022-09-20T16:46:35;11.40;99.90
32215;DHT22;18708;53.124;23.190;2022-09-20T16:49:04;11.30;99.90
32215;DHT22;18708;53.124;23.190;2022-09-20T16:51:32;11.30;99.90
32215;DHT22;18708;53.124;23.190;2022-09-20T16:54:06;11.30;99.90
32215;DHT22;18708;53.124;23.190;2022-09-20T16:56:33;11.20;99.90
32215;DHT22;18708;53.124;23.190;2022-09-20T16:59:03;11.20;99.90
32215;DHT22;18708;53.124;23.190;2022-09-20T17:01:30;11.00;99.90
32215;DHT22;18708;53.124;23.190;2022-09-20T17:03:57;10.90;99.90
32215;DHT22;18708;53.124;23.190;2022-09-20T17:06:23;10.70;99.90
32215;DHT22;18708;53.124;23.190;2022-09-20T17:08:53;10.70;99.90
32215;DHT22;18708;53.124;23.190;2022-09-20T17:11:22;10.60;99.90
32215;DHT22;18708;53.124;23.190;2022-09-20T17:13:50;10.60;99.90
32215;DHT22;18708;53.124;23.190;2022-09-20T17:16:18;10.60;99.90
32215;DHT22;18708;53.124;23.190;2022-09-20T17:18:45;10.60;99.90
32215;DHT22;18708;53.124;23.190;2022-09-20T17:21:14;10.60;99.90
32215;DHT22;18708;53.124;23.190;2022-09-20T17:23:42;10.50;99.90
32215;DHT22;18708;53.124;23.190;2022-09-20T17:26:14;10.60;99.90
32215;DHT22;18708;53.124;23.190;2022-09-20T17:28:45;10.50;99.90
32215;DHT22;18708;53.124;23.190;2022-09-20T17:31:14;10.50;99.90
32215;DHT22;18708;53.124;23.190;2022-09-20T17:33:41;10.50;99.90
32215;DHT22;18708;53.124;23.190;2022-09-20T17:36:11;10.40;99.90
32215;DHT22;18708;53.124;23.190;2022-09-20T17:38:37;10.40;99.90
32215;DHT22;18708;53.124;23.190;2022-09-20T17:41:13;10.30;99.90
32215;DHT22;18708;53.124;23.190;2022-09-20T17:43:39;10.30;99.90
32215;DHT22;18708;53.124;23.190;2022-09-20T17:46:13;10.30;99.90
32215;DHT22;18708;53.124;23.190;2022-09-20T17:48:40;10.30;99.90
32215;DHT22;18708;53.124;23.190;2022-09-20T17:51:08;10.20;99.90
32215;DHT22;18708;53.124;23.190;2022-09-20T17:53:35;10.10;99.90
32215;DHT22;18708;53.124;23.190;2022-09-20T17:56:01;10.10;99.90
32215;DHT22;18708;53.124;23.190;2022-09-20T17:58:27;10.10;99.90
32215;DHT22;18708;53.124;23.190;2022-09-20T18:00:53;10.00;99.90
32215;DHT22;18708;53.124;23.190;2022-09-20T18:03:25;10.00;99.90
32215;DHT22;18708;53.124;23.190;2022-09-20T18:05:51;10.00;99.90
32215;DHT22;18708;53.124;23.190;2022-09-20T18:08:17;10.00;99.90
32215;DHT22;18708;53.124;23.190;2022-09-20T18:10:54;10.00;99.90
32215;DHT22;18708;53.124;23.190;2022-09-20T18:13:20;9.90;99.90
32215;DHT22;18708;53.124;23.190;2022-09-20T18:15:46;10.00;99.90
32215;DHT22;18708;53.124;23.190;2022-09-20T18:18:12;10.00;99.90
32215;DHT22;18708;53.124;23.190;2022-09-20T18:20:37;10.10;99.90
32215;DHT22;18708;53.124;23.190;2022-09-20T18:23:03;10.20;99.90
32215;DHT22;18708;53.124;23.190;2022-09-20T18:25:29;10.20;99.90
32215;DHT22;18708;53.124;23.190;2022-09-20T18:28:15;10.30;99.90
32215;DHT22;18708;53.124;23.190;2022-09-20T18:30:42;10.30;99.90
32215;DHT22;18708;53.124;23.190;2022-09-20T18:33:10;10.40;99.90
32215;DHT22;18708;53.124;23.190;2022-09-20T18:35:36;10.50;99.90
32215;DHT22;18708;53.124;23.190;2022-09-20T18:38:04;10.50;99.90
32215;DHT22;18708;53.124;23.190;2022-09-20T18:40:31;10.60;99.90
32215;DHT22;18708;53.124;23.190;2022-09-20T18:42:58;10.70;99.90
32215;DHT22;18708;53.124;23.190;2022-09-20T18:45:25;10.60;99.90
32215;DHT22;18708;53.124;23.190;2022-09-20T18:47:52;10.70;99.90
32215;DHT22;18708;53.124;23.190;2022-09-20T18:50:21;10.70;99.90
32215;DHT22;18708;53.124;23.190;2022-09-20T18:52:48;10.60;99.90
32215;DHT22;18708;53.124;23.190;2022-09-20T18:55:15;10.70;99.90
32215;DHT22;18708;53.124;23.190;2022-09-20T18:57:41;10.70;99.90
32215;DHT22;18708;53.124;23.190;2022-09-20T19:00:10;10.70;99.90
32215;DHT22;18708;53.124;23.190;2022-09-20T19:05:19;10.70;99.90
32215;DHT22;18708;53.124;23.190;2022-09-20T19:08:18;10.70;99.90
32215;DHT22;18708;53.124;23.190;2022-09-20T19:10:55;10.90;99.90
32215;DHT22;18708;53.124;23.190;2022-09-20T19:13:44;10.90;99.90
32215;DHT22;18708;53.124;23.190;2022-09-20T19:21:39;10.90;99.90
32215;DHT22;18708;53.124;23.190;2022-09-20T19:24:53;10.90;99.90
32215;DHT22;18708;53.124;23.190;2022-09-20T19:26:58;10.90;99.90
32215;DHT22;18708;53.124;23.190;2022-09-20T19:29:26;11.00;99.90
32215;DHT22;18708;53.124;23.190;2022-09-20T19:31:57;10.90;99.90
32215;DHT22;18708;53.124;23.190;2022-09-20T19:34:30;10.80;99.90
32215;DHT22;18708;53.124;23.190;2022-09-20T19:39:55;10.70;99.90
32215;DHT22;18708;53.124;23.190;2022-09-20T19:50:51;10.80;99.90
32215;DHT22;18708;53.124;23.190;2022-09-20T19:53:20;10.70;99.90
32215;DHT22;18708;53.124;23.190;2022-09-20T19:55:56;10.80;99.90
32215;DHT22;18708;53.124;23.190;2022-09-20T19:58:24;10.70;99.90
32215;DHT22;18708;53.124;23.190;2022-09-20T20:00:50;10.60;99.90
32215;DHT22;18708;53.124;23.190;2022-09-20T20:03:17;10.70;99.90
32215;DHT22;18708;53.124;23.190;2022-09-20T20:06:15;10.60;99.90
32215;DHT22;18708;53.124;23.190;2022-09-20T20:11:51;10.70;99.90
32215;DHT22;18708;53.124;23.190;2022-09-20T20:23:11;10.70;99.90
32215;DHT22;18708;53.124;23.190;2022-09-20T20:28:30;10.70;99.90
32215;DHT22;18708;53.124;23.190;2022-09-20T20:30:56;10.70;99.90
32215;DHT22;18708;53.124;23.190;2022-09-20T20:33:23;10.70;99.90
32215;DHT22;18708;53.124;23.190;2022-09-20T20:35:57;10.70;99.90
32215;DHT22;18708;53.124;23.190;2022-09-20T20:38:25;10.70;99.90
32215;DHT22;18708;53.124;23.190;2022-09-20T20:41:02;10.70;99.90
32215;DHT22;18708;53.124;23.190;2022-09-20T20:43:31;10.70;99.90
32215;DHT22;18708;53.124;23.190;2022-09-20T20:45:59;10.70;99.90
32215;DHT22;18708;53.124;23.190;2022-09-20T20:48:25;10.70;99.90
32215;DHT22;18708;53.124;23.190;2022-09-20T20:53:29;10.70;99.90
32215;DHT22;18708;53.124;23.190;2022-09-20T20:58:30;10.80;99.90
32215;DHT22;18708;53.124;23.190;2022-09-20T21:01:04;10.70;99.90
32215;DHT22;18708;53.124;23.190;2022-09-20T21:03:29;10.70;99.90
32215;DHT22;18708;53.124;23.190;2022-09-20T21:05:55;10.70;99.90
32215;DHT22;18708;53.124;23.190;2022-09-20T21:08:21;10.70;99.90
32215;DHT22;18708;53.124;23.190;2022-09-20T21:10:46;10.70;99.90
32215;DHT22;18708;53.124;23.190;2022-09-20T21:13:12;10.70;99.90
32215;DHT22;18708;53.124;23.190;2022-09-20T21:15:38;10.60;99.90
32215;DHT22;18708;53.124;23.190;2022-09-20T21:18:03;10.60;99.90
32215;DHT22;18708;53.124;23.190;2022-09-20T21:20:29;10.60;99.90
32215;DHT22;18708;53.124;23.190;2022-09-20T21:22:55;10.60;99.90
32215;DHT22;18708;53.124;23.190;2022-09-20T21:25:21;10.60;99.90
32215;DHT22;18708;53.124;23.190;2022-09-20T21:27:47;10.60;99.90
32215;DHT22;18708;53.124;23.190;2022-09-20T21:30:13;10.60;99.90
32215;DHT22;18708;53.124;23.190;2022-09-20T21:32:39;10.60;99.90
32215;DHT22;18708;53.124;23.190;2022-09-20T21:35:05;10.60;99.90
32215;DHT22;18708;53.124;23.190;2022-09-20T21:37:31;10.50;99.90
32215;DHT22;18708;53.124;23.190;2022-09-20T21:39:56;10.50;99.90